Volcan De Teneguia — ECLA — position and weather

sailwx.info

Track history (hours):
 
Tides and Currents Weather Stations Pressure Air Temp Water Temp Dewpoint Dewpoint Depression Visibility Wind Speed Wind Dir Waves Ship Positions

Volcan De Teneguia

Last reported at 2017-Apr-27 18:30 UTC. Time now 2017-Apr-27 18:52 UTC.
Position N 28°47' W 015°47'.

Length 145 m; draft 5.4 m.

Type: Cargo ship. MMSI: 225317000.

Date/timePositionNaut miles runAvg speedWind from/ knotsBaromVisibWave heightAir tempDewpointWater temp
2017-Apr-27 18:30N 28°47' W 015°47'713.1
2017-Apr-27 18:00N 28°52' W 015°42'713.0
2017-Apr-27 17:30N 28°56' W 015°36'612.8
2017-Apr-27 17:00N 29°01' W 015°31'713.1
2017-Apr-27 16:30N 29°05' W 015°26'613.2
2017-Apr-27 16:00N 29°10' W 015°20'  
2017-Apr-22 03:36N 29°02' W 015°29'213.1
2017-Apr-22 03:28N 29°01' W 015°31'613.1
2017-Apr-22 03:00N 28°57' W 015°36'713.2
2017-Apr-22 02:30N 28°52' W 015°41'713.3
2017-Apr-22 02:00N 28°47' W 015°46'713.2
2017-Apr-22 01:30N 28°43' W 015°52'713.3
2017-Apr-22 01:00N 28°38' W 015°57'713.2
2017-Apr-22 00:30N 28°33' W 016°03'713.3
2017-Apr-22 00:00N 28°29' W 016°09'5 1.3
2017-Apr-21 20:31N 28°29' W 016°14'0 0.0
2017-Apr-21 20:13N 28°29' W 016°14'0 0.0
2017-Apr-21 18:13N 28°29' W 016°14'0 0.0
2017-Apr-21 17:58N 28°29' W 016°14'1 2.5
2017-Apr-21 17:28N 28°28' W 016°13'614.1
2017-Apr-21 17:00N 28°26' W 016°06'714.3
2017-Apr-21 16:30N 28°24' W 015°58'714.3
2017-Apr-21 16:00N 28°21' W 015°51'714.3
2017-Apr-21 15:30N 28°19' W 015°43'714.1
2017-Apr-21 15:00N 28°17' W 015°35'713.5
2017-Apr-21 14:30N 28°14' W 015°29'6 6.3
2017-Apr-21 13:30N 28°09' W 015°25'0 0.2
2017-Apr-21 12:58N 28°09' W 015°25'0 0.0
2017-Apr-21 12:28N 28°09' W 015°25'0 0.0
2017-Apr-21 11:58N 28°09' W 015°25'0 0.0
2017-Apr-21 11:28N 28°09' W 015°25'0 0.0
2017-Apr-21 10:58N 28°09' W 015°25'0 0.0
2017-Apr-21 10:28N 28°09' W 015°25'0 0.0
2017-Apr-21 09:58N 28°09' W 015°25'0 0.0
2017-Apr-21 09:28N 28°09' W 015°25'0 0.0
2017-Apr-21 08:58N 28°09' W 015°25'0 0.0
2017-Apr-21 08:28N 28°09' W 015°25'0 0.0
2017-Apr-21 07:49N 28°09' W 015°25'0 0.0
2017-Apr-21 07:28N 28°09' W 015°25'0 0.0
2017-Apr-21 06:49N 28°09' W 015°25'0 0.0
2017-Apr-21 06:23N 28°09' W 015°25'0 0.1
2017-Apr-21 06:00N 28°09' W 015°25'2 3.7
2017-Apr-21 05:30N 28°07' W 015°24'611.9
2017-Apr-21 05:00N 28°13' W 015°21'612.9
2017-Apr-21 04:31N 28°19' W 015°21'612.7
2017-Apr-21 04:00N 28°25' W 015°22'5 9.7
2017-Apr-21 03:30N 28°29' W 015°24'510.7
2017-Apr-21 03:00N 28°27' W 015°30'611.2
2017-Apr-21 02:30N 28°24' W 015°35'611.2
2017-Apr-21 02:00N 28°20' W 015°39'611.4
2017-Apr-21 01:30N 28°17' W 015°45'611.3
2017-Apr-21 01:00N 28°13' W 015°50'13 9.9
2017-Apr-20 23:42N 28°18' W 016°03'413.1
2017-Apr-20 23:25N 28°21' W 016°06'713.2
2017-Apr-20 22:55N 28°26' W 016°11'4 9.5
2017-Apr-20 22:29N 28°29' W 016°14'0 0.0
2017-Apr-20 20:42N 28°29' W 016°14'0 0.0
2017-Apr-20 20:15N 28°29' W 016°14'0 0.0
2017-Apr-20 19:48N 28°29' W 016°14'0 0.0
2017-Apr-20 19:09N 28°29' W 016°14'0 0.0
2017-Apr-20 19:00N 28°29' W 016°14'1 2.9
2017-Apr-20 18:30N 28°28' W 016°13'3 5.6
2017-Apr-20 18:00N 28°28' W 016°10'4 7.6
2017-Apr-20 17:30N 28°25' W 016°13'2 4.3
2017-Apr-20 17:00N 28°27' W 016°11'4 7.9
2017-Apr-20 16:30N 28°29' W 016°07'813.8
2017-Apr-20 15:56N 28°35' W 016°01'814.7
2017-Apr-20 15:22N 28°41' W 015°55'614.7
2017-Apr-20 14:59N 28°45' W 015°50'714.8
2017-Apr-20 14:30N 28°50' W 015°44'1514.8
2017-Apr-20 13:30N 29°00' W 015°32'28514.7
2017-Apr-19 18:07N 32°19' W 011°36'16714.8
2017-Apr-19 06:52N 34°16' W 009°13'614.4
2017-Apr-19 06:27N 34°20' W 009°08'614.4
2017-Apr-19 06:01N 34°24' W 009°02'3714.1
2017-Apr-19 03:25N 34°50' W 008°31'613.9
2017-Apr-19 03:00N 34°54' W 008°26'714.0
2017-Apr-19 02:30N 34°59' W 008°20'1014.3
2017-Apr-19 01:46N 35°06' W 008°11'514.7
2017-Apr-19 01:28N 35°09' W 008°07'714.4
2017-Apr-19 00:58N 35°14' W 008°00'714.4
2017-Apr-19 00:28N 35°19' W 007°54'1214.8
2017-Apr-18 23:38N 35°28' W 007°43'214.9
2017-Apr-18 23:29N 35°29' W 007°41'714.4
2017-Apr-18 22:59N 35°34' W 007°35'714.7
2017-Apr-18 22:29N 35°39' W 007°28'714.6
2017-Apr-18 22:01N 35°44' W 007°23'714.6
2017-Apr-18 21:31N 35°50' W 007°16'714.8
2017-Apr-18 21:00N 35°55' W 007°09'814.3
2017-Apr-18 20:28N 36°00' W 007°03'814.0
2017-Apr-18 19:54N 36°06' W 006°56'1614.2
2017-Apr-18 18:46N 36°17' W 006°41'  
Track history (hours):
 
Tides and Currents Weather Stations Pressure Air Temp Water Temp Dewpoint Dewpoint Depression Visibility Wind Speed Wind Dir Waves Ship Positions

Volcan De Teneguia

Last reported at 2017-Apr-27 18:30 UTC. Time now 2017-Apr-27 18:52 UTC.
Position N 28°47' W 015°47'.

Length 145 m; draft 5.4 m.

Type: Cargo ship. MMSI: 225317000.

Date/timePositionNaut miles runAvg speedWind from/ knotsBaromVisibWave heightAir tempDewpointWater temp
2017-Apr-27 18:30N 28°47' W 015°47'713.1
2017-Apr-27 18:00N 28°52' W 015°42'713.0
2017-Apr-27 17:30N 28°56' W 015°36'612.8
2017-Apr-27 17:00N 29°01' W 015°31'713.1
2017-Apr-27 16:30N 29°05' W 015°26'613.2
2017-Apr-27 16:00N 29°10' W 015°20'  
2017-Apr-22 03:36N 29°02' W 015°29'213.1
2017-Apr-22 03:28N 29°01' W 015°31'613.1
2017-Apr-22 03:00N 28°57' W 015°36'713.2
2017-Apr-22 02:30N 28°52' W 015°41'713.3
2017-Apr-22 02:00N 28°47' W 015°46'713.2
2017-Apr-22 01:30N 28°43' W 015°52'713.3
2017-Apr-22 01:00N 28°38' W 015°57'713.2
2017-Apr-22 00:30N 28°33' W 016°03'713.3
2017-Apr-22 00:00N 28°29' W 016°09'5 1.3
2017-Apr-21 20:31N 28°29' W 016°14'0 0.0
2017-Apr-21 20:13N 28°29' W 016°14'0 0.0
2017-Apr-21 18:13N 28°29' W 016°14'0 0.0
2017-Apr-21 17:58N 28°29' W 016°14'1 2.5
2017-Apr-21 17:28N 28°28' W 016°13'614.1
2017-Apr-21 17:00N 28°26' W 016°06'714.3
2017-Apr-21 16:30N 28°24' W 015°58'714.3
2017-Apr-21 16:00N 28°21' W 015°51'714.3
2017-Apr-21 15:30N 28°19' W 015°43'714.1
2017-Apr-21 15:00N 28°17' W 015°35'713.5
2017-Apr-21 14:30N 28°14' W 015°29'6 6.3
2017-Apr-21 13:30N 28°09' W 015°25'0 0.2
2017-Apr-21 12:58N 28°09' W 015°25'0 0.0
2017-Apr-21 12:28N 28°09' W 015°25'0 0.0
2017-Apr-21 11:58N 28°09' W 015°25'0 0.0
2017-Apr-21 11:28N 28°09' W 015°25'0 0.0
2017-Apr-21 10:58N 28°09' W 015°25'0 0.0
2017-Apr-21 10:28N 28°09' W 015°25'0 0.0
2017-Apr-21 09:58N 28°09' W 015°25'0 0.0
2017-Apr-21 09:28N 28°09' W 015°25'0 0.0
2017-Apr-21 08:58N 28°09' W 015°25'0 0.0
2017-Apr-21 08:28N 28°09' W 015°25'0 0.0
2017-Apr-21 07:49N 28°09' W 015°25'0 0.0
2017-Apr-21 07:28N 28°09' W 015°25'0 0.0
2017-Apr-21 06:49N 28°09' W 015°25'0 0.0
2017-Apr-21 06:23N 28°09' W 015°25'0 0.1
2017-Apr-21 06:00N 28°09' W 015°25'2 3.7
2017-Apr-21 05:30N 28°07' W 015°24'611.9
2017-Apr-21 05:00N 28°13' W 015°21'612.9
2017-Apr-21 04:31N 28°19' W 015°21'612.7
2017-Apr-21 04:00N 28°25' W 015°22'5 9.7
2017-Apr-21 03:30N 28°29' W 015°24'510.7
2017-Apr-21 03:00N 28°27' W 015°30'611.2
2017-Apr-21 02:30N 28°24' W 015°35'611.2
2017-Apr-21 02:00N 28°20' W 015°39'611.4
2017-Apr-21 01:30N 28°17' W 015°45'611.3
2017-Apr-21 01:00N 28°13' W 015°50'13 9.9
2017-Apr-20 23:42N 28°18' W 016°03'413.1
2017-Apr-20 23:25N 28°21' W 016°06'713.2
2017-Apr-20 22:55N 28°26' W 016°11'4 9.5
2017-Apr-20 22:29N 28°29' W 016°14'0 0.0
2017-Apr-20 20:42N 28°29' W 016°14'0 0.0
2017-Apr-20 20:15N 28°29' W 016°14'0 0.0
2017-Apr-20 19:48N 28°29' W 016°14'0 0.0
2017-Apr-20 19:09N 28°29' W 016°14'0 0.0
2017-Apr-20 19:00N 28°29' W 016°14'1 2.9
2017-Apr-20 18:30N 28°28' W 016°13'3 5.6
2017-Apr-20 18:00N 28°28' W 016°10'4 7.6
2017-Apr-20 17:30N 28°25' W 016°13'2 4.3
2017-Apr-20 17:00N 28°27' W 016°11'4 7.9
2017-Apr-20 16:30N 28°29' W 016°07'813.8
2017-Apr-20 15:56N 28°35' W 016°01'814.7
2017-Apr-20 15:22N 28°41' W 015°55'614.7
2017-Apr-20 14:59N 28°45' W 015°50'714.8
2017-Apr-20 14:30N 28°50' W 015°44'1514.8
2017-Apr-20 13:30N 29°00' W 015°32'28514.7
2017-Apr-19 18:07N 32°19' W 011°36'16714.8
2017-Apr-19 06:52N 34°16' W 009°13'614.4
2017-Apr-19 06:27N 34°20' W 009°08'614.4
2017-Apr-19 06:01N 34°24' W 009°02'3714.1
2017-Apr-19 03:25N 34°50' W 008°31'613.9
2017-Apr-19 03:00N 34°54' W 008°26'714.0
2017-Apr-19 02:30N 34°59' W 008°20'1014.3
2017-Apr-19 01:46N 35°06' W 008°11'514.7
2017-Apr-19 01:28N 35°09' W 008°07'714.4
2017-Apr-19 00:58N 35°14' W 008°00'714.4
2017-Apr-19 00:28N 35°19' W 007°54'1214.8
2017-Apr-18 23:38N 35°28' W 007°43'214.9
2017-Apr-18 23:29N 35°29' W 007°41'714.4
2017-Apr-18 22:59N 35°34' W 007°35'714.7
2017-Apr-18 22:29N 35°39' W 007°28'714.6
2017-Apr-18 22:01N 35°44' W 007°23'714.6
2017-Apr-18 21:31N 35°50' W 007°16'714.8
2017-Apr-18 21:00N 35°55' W 007°09'814.3
2017-Apr-18 20:28N 36°00' W 007°03'814.0
2017-Apr-18 19:54N 36°06' W 006°56'1614.2
2017-Apr-18 18:46N 36°17' W 006°41'  

Dump ship's entire track history